Terminal Aerodrome Forecast
Issued by NWS

Home | Current Version | Previous Version | Text Only | Print | Product List | Glossary On
Versions: 1 2 3 4 5 6 7 8 9 10 11 12 13 14 15 16 17 18 19 20 21 22 23 24 25 26
000
FTUS43 KBIS 012300
TAFDIK
TAF
KDIK 012320Z 0200/0224 29012KT P6SM BKN050
     FM020400 26007KT P6SM SCT150
     FM021700 27018G26KT P6SM VCSH BKN060
     FM022200 30023G32KT P6SM SCT060=

USA.gov is the U.S. government's official web portal to all federal, state and local government web resources and services.